Terminal Aerodrome Forecast
Issued by NWS Flagstaff, AZ

Home | Current Version | Previous Version | Text Only | Print | Product List | Glossary On
Versions: 1 2 3 4 5 6 7 8 9 10 11 12 13 14 15 16 17 18 19 20 21 22 23 24 25 26 27 28
000
FTUS45 KFGZ 180100 AAA
TAFINW
TAF AMD
KINW 180106Z 1801/1824 31010KT P6SM BKN070 OVC090
     FM180200 25008KT P6SM SCT070 BKN090=

USA.gov is the U.S. government's official web portal to all federal, state and local government web resources and services.